createdAt,value
2023-06-02T00:01:59.685Z,100667.97
2023-06-02T00:04:32.160Z,100666.69
2023-06-02T00:07:05.667Z,100667.44
2023-06-02T00:09:45.483Z,100669.34
2023-06-02T00:12:16.199Z,100679.22
2023-06-02T00:14:47.167Z,100687.44
2023-06-02T00:17:21.202Z,100678.59
2023-06-02T00:19:53.465Z,100694.78
2023-06-02T00:22:24.675Z,100695.53
2023-06-02T00:24:55.554Z,100703.81
2023-06-02T00:27:26.091Z,100708.97
2023-06-02T00:29:57.255Z,100717.88
2023-06-02T00:32:28.333Z,100725.75
2023-06-02T00:34:59.323Z,100661.88
2023-06-02T00:37:30.766Z,100731.13
2023-06-02T00:40:02.004Z,100736.44
2023-06-02T00:42:33.149Z,100726.53
2023-06-02T00:45:04.215Z,100738.03
2023-06-02T00:47:35.093Z,100734.63
2023-06-02T00:50:07.363Z,100728.25
2023-06-02T00:52:42.391Z,100609.75
2023-06-02T00:55:13.528Z,100739.53
2023-06-02T00:57:44.550Z,100737.56
2023-06-02T01:00:16.885Z,100735.09
2023-06-02T01:02:48.294Z,100740.91
2023-06-02T01:05:21.878Z,100735.84
2023-06-02T01:08:01.107Z,100738.97
2023-06-02T01:10:33.030Z,100719.06
2023-06-02T01:13:06.184Z,100750.53
2023-06-02T01:15:37.072Z,100711.63
2023-06-02T01:18:15.323Z,100754.00
2023-06-02T01:20:59.982Z,100760.41
2023-06-02T01:23:54.635Z,100621.50
2023-06-02T01:26:31.093Z,100763.00
2023-06-02T01:29:01.806Z,100754.50
2023-06-02T01:31:49.467Z,100738.47
2023-06-02T01:34:35.388Z,100753.00
2023-06-02T01:37:07.472Z,100737.56
2023-06-02T01:39:40.380Z,100611.16
2023-06-02T01:42:13.647Z,100759.84
2023-06-02T01:44:46.197Z,100743.34
2023-06-02T01:47:17.718Z,100745.81
2023-06-02T01:49:48.415Z,100745.00
2023-06-02T01:52:18.902Z,100727.03
2023-06-02T01:54:51.042Z,100751.38
2023-06-02T01:57:21.765Z,100751.38
2023-06-02T01:59:52.673Z,100744.78
2023-06-02T02:02:23.607Z,100752.59
2023-06-02T02:04:53.983Z,100746.72
2023-06-02T02:07:26.395Z,100747.53
2023-06-02T02:09:57.053Z,100754.41
2023-06-02T02:12:27.762Z,100762.09
2023-06-02T02:14:59.968Z,100753.50
2023-06-02T02:17:31.057Z,100757.16
2023-06-02T02:20:01.815Z,100757.97
2023-06-02T02:22:32.673Z,100767.34
2023-06-02T02:25:03.407Z,100763.09
2023-06-02T02:27:33.979Z,100764.28
2023-06-02T02:30:08.026Z,100765.72
2023-06-02T02:32:44.319Z,100724.84
2023-06-02T02:35:16.097Z,100767.84
2023-06-02T02:37:48.780Z,100767.84
2023-06-02T02:40:23.884Z,100774.81
2023-06-02T02:42:54.696Z,100741.34
2023-06-02T02:45:25.276Z,100778.34
2023-06-02T02:47:56.995Z,100773.75
2023-06-02T02:50:28.158Z,100777.53
2023-06-02T02:52:59.298Z,100751.66
2023-06-02T02:55:30.620Z,100780.00
2023-06-02T02:58:03.305Z,100790.03
2023-06-02T03:00:34.592Z,100759.69
2023-06-02T03:03:05.656Z,100770.88
2023-06-02T03:05:37.174Z,100764.47
2023-06-02T03:08:09.703Z,100758.38
2023-06-02T03:10:40.578Z,100754.84
2023-06-02T03:13:11.321Z,100763.09
2023-06-02T03:15:43.598Z,100744.31
2023-06-02T03:18:17.090Z,100733.94
2023-06-02T03:20:51.190Z,100675.34
2023-06-02T03:23:22.396Z,100732.88
2023-06-02T03:25:54.138Z,100634.03
2023-06-02T03:28:25.425Z,100717.41
2023-06-02T03:30:56.685Z,100725.28
2023-06-02T03:33:28.373Z,100718.00
2023-06-02T03:35:59.292Z,100712.06
2023-06-02T03:38:31.235Z,100690.59
2023-06-02T03:41:01.973Z,100701.53
2023-06-02T03:43:32.975Z,100692.31
2023-06-02T03:46:04.174Z,100694.00
2023-06-02T03:48:35.797Z,100686.66
2023-06-02T03:51:07.818Z,100682.03
2023-06-02T03:53:40.362Z,100676.28
2023-06-02T03:56:11.462Z,100650.28
2023-06-02T03:58:42.245Z,100668.44
2023-06-02T04:01:14.643Z,100673.66
2023-06-02T04:03:47.491Z,100671.53
2023-06-02T04:06:19.361Z,100671.53
2023-06-02T04:08:51.004Z,100675.31
2023-06-02T04:11:24.847Z,100658.66
2023-06-02T04:13:57.836Z,100667.25
2023-06-02T04:16:28.819Z,100585.25
2023-06-02T04:18:59.464Z,100666.78
2023-06-02T04:21:31.653Z,100666.78
2023-06-02T04:24:02.785Z,100656.97
2023-06-02T04:26:33.562Z,100645.28
2023-06-02T04:29:04.364Z,100644.53
2023-06-02T04:31:48.135Z,100597.47
2023-06-02T04:34:28.582Z,100640.28
2023-06-02T04:36:59.436Z,100629.16
2023-06-02T04:39:30.159Z,100606.16
2023-06-02T04:42:01.964Z,100612.63
2023-06-02T04:44:32.990Z,100615.06
2023-06-02T04:47:04.704Z,100599.94
2023-06-02T04:49:35.603Z,100608.31
2023-06-02T04:52:10.649Z,100492.19
2023-06-02T04:54:45.012Z,100594.03
2023-06-02T04:57:17.676Z,100627.09
2023-06-02T04:59:48.705Z,100610.66
2023-06-02T05:02:20.806Z,100586.94
2023-06-02T05:04:51.774Z,100560.91
2023-06-02T05:07:22.775Z,100586.00
2023-06-02T05:09:53.577Z,100583.59
2023-06-02T05:12:25.146Z,100570.38
2023-06-02T05:14:57.320Z,100565.13
2023-06-02T05:17:31.756Z,100441.72
2023-06-02T05:20:05.524Z,100570.72
2023-06-02T05:22:36.277Z,100554.69
2023-06-02T05:25:11.191Z,100547.03
2023-06-02T05:27:43.798Z,100538.66
2023-06-02T05:30:16.965Z,100522.16
2023-06-02T05:32:48.831Z,100531.81
2023-06-02T05:35:20.026Z,100518.88
2023-06-02T05:37:50.841Z,100526.03
2023-06-02T05:40:24.898Z,100523.34
2023-06-02T05:42:55.774Z,100526.78
2023-06-02T05:45:26.528Z,100522.53
2023-06-02T05:47:58.605Z,100511.69
2023-06-02T05:50:29.506Z,100498.25
2023-06-02T05:53:00.531Z,100488.41
2023-06-02T05:55:32.267Z,100476.16
2023-06-02T05:58:04.302Z,100470.59
2023-06-02T06:00:35.206Z,100504.84
2023-06-02T06:03:06.320Z,100513.81
2023-06-02T06:05:40.283Z,100504.84
2023-06-02T06:08:11.108Z,100500.34
2023-06-02T06:10:45.018Z,100512.22
2023-06-02T06:13:19.311Z,100412.69
2023-06-02T06:15:52.228Z,100506.34
2023-06-02T06:18:23.064Z,100490.06
2023-06-02T06:20:54.383Z,100477.56
2023-06-02T06:23:27.788Z,100467.91
2023-06-02T06:25:58.258Z,100468.03
2023-06-02T06:28:28.985Z,100457.06
2023-06-02T06:31:02.947Z,100408.72
2023-06-02T06:33:33.815Z,100459.19
2023-06-02T06:36:05.165Z,100447.88
2023-06-02T06:38:36.099Z,100406.94
2023-06-02T06:41:07.642Z,100452.34
2023-06-02T06:43:38.749Z,100441.50
2023-06-02T06:46:16.814Z,100436.06
2023-06-02T06:48:50.150Z,100417.78
2023-06-02T06:51:22.652Z,100433.13
2023-06-02T06:53:53.131Z,100437.50
2023-06-02T06:56:24.232Z,100430.66
2023-06-02T06:58:55.556Z,100420.75
2023-06-02T07:01:26.601Z,100351.91
2023-06-02T07:03:57.550Z,100429.84
2023-06-02T07:06:28.197Z,100407.19
2023-06-02T07:08:59.266Z,100393.84
2023-06-02T07:11:30.129Z,100421.09
2023-06-02T07:14:14.800Z,100386.19
2023-06-02T07:16:51.977Z,100379.84
2023-06-02T07:19:23.769Z,100403.25
2023-06-02T07:21:55.349Z,100426.78
2023-06-02T07:24:26.244Z,100429.94
2023-06-02T07:26:59.294Z,100433.25
2023-06-02T07:29:29.988Z,100434.91
2023-06-02T07:32:00.807Z,100414.13
2023-06-02T07:34:31.658Z,100452.84
2023-06-02T07:37:04.738Z,100452.47
2023-06-02T07:39:35.512Z,100439.13
2023-06-02T07:42:06.300Z,100418.16
2023-06-02T07:44:37.156Z,100406.38
2023-06-02T07:47:09.728Z,100427.81
2023-06-02T07:49:40.574Z,100429.69
2023-06-02T07:52:11.228Z,100435.50
2023-06-02T07:54:42.693Z,100448.78
2023-06-02T07:57:13.521Z,100447.16
2023-06-02T07:59:44.930Z,100446.22
2023-06-02T08:02:15.928Z,100445.97
2023-06-02T08:04:46.832Z,100459.31
2023-06-02T08:07:17.926Z,100450.44
2023-06-02T08:09:48.605Z,100428.50
2023-06-02T08:12:19.184Z,100448.94
2023-06-02T08:14:50.037Z,100387.03
2023-06-02T08:17:21.097Z,100422.72
2023-06-02T08:19:51.832Z,100421.69
2023-06-02T08:22:22.851Z,100411.53
2023-06-02T08:24:54.689Z,100402.72
2023-06-02T08:27:26.617Z,100412.00
2023-06-02T08:30:00.666Z,100420.75
2023-06-02T08:32:32.426Z,100395.53
2023-06-02T08:35:06.079Z,100434.56
2023-06-02T08:37:36.847Z,100343.34
2023-06-02T08:40:08.353Z,100445.41
2023-06-02T08:42:39.309Z,100437.84
2023-06-02T08:45:10.671Z,100455.53
2023-06-02T08:47:46.077Z,100446.44
2023-06-02T08:50:18.193Z,100454.38
2023-06-02T08:52:49.371Z,100443.38
2023-06-02T08:55:20.213Z,100436.06
2023-06-02T08:57:51.006Z,100433.47
2023-06-02T09:00:22.562Z,100431.59
2023-06-02T09:02:53.759Z,100414.59
2023-06-02T09:05:24.737Z,100448.00
2023-06-02T09:08:11.481Z,100463.78
2023-06-02T09:10:44.432Z,100458.75
2023-06-02T09:16:12.551Z,100468.63
2023-06-02T09:18:59.086Z,100477.84
2023-06-02T09:21:40.105Z,100481.25
2023-06-02T09:24:14.010Z,100430.88
2023-06-02T09:26:54.453Z,100451.19
2023-06-02T09:29:25.377Z,100457.31
2023-06-02T09:31:59.221Z,100335.66
2023-06-02T09:34:38.554Z,100306.81
2023-06-02T09:37:14.103Z,100456.97
2023-06-02T09:39:51.640Z,100389.66
2023-06-02T09:42:25.746Z,100469.09
2023-06-02T09:45:10.595Z,100478.75
2023-06-02T09:47:44.495Z,100360.75
2023-06-02T09:50:38.396Z,100468.84
2023-06-02T09:53:10.994Z,100460.47
2023-06-02T09:55:42.279Z,100458.84
2023-06-02T09:58:14.275Z,100457.50
2023-06-02T10:00:45.511Z,100452.56
2023-06-02T10:03:16.372Z,100443.28
2023-06-02T10:06:03.361Z,100311.84
2023-06-02T10:08:40.314Z,100462.59
2023-06-02T10:11:34.713Z,100333.50
2023-06-02T10:14:31.151Z,100334.84
2023-06-02T10:17:27.446Z,100465.09
2023-06-02T10:20:25.410Z,100475.47
2023-06-02T10:23:31.143Z,100469.53
2023-06-02T10:26:25.470Z,100363.34
2023-06-02T10:28:57.557Z,100449.69
2023-06-02T10:31:34.093Z,100349.09
2023-06-02T10:34:05.637Z,100465.47
2023-06-02T10:37:04.002Z,100473.25
2023-06-02T10:39:43.865Z,100483.81
2023-06-02T10:42:16.638Z,100496.53
2023-06-02T10:44:50.033Z,100481.63
2023-06-02T10:47:21.183Z,100484.47
2023-06-02T10:50:04.719Z,100254.25
2023-06-02T10:52:58.068Z,100456.47
2023-06-02T10:55:36.040Z,100490.50
2023-06-02T10:58:14.153Z,100465.38
2023-06-02T11:00:49.749Z,100500.00
2023-06-02T11:03:23.051Z,100508.28
2023-06-02T11:05:56.646Z,100514.22
2023-06-02T11:08:30.895Z,100521.97
2023-06-02T11:11:02.989Z,100497.19
2023-06-02T11:13:53.533Z,100513.47
2023-06-02T11:16:24.408Z,100546.03
2023-06-02T11:18:54.895Z,100507.56
2023-06-02T11:21:26.695Z,100538.59
2023-06-02T11:23:57.534Z,100561.34
2023-06-02T11:26:29.415Z,100539.91
2023-06-02T11:29:17.221Z,100563.16
2023-06-02T11:31:52.293Z,100561.84
2023-06-02T11:34:23.085Z,100506.91
2023-06-02T11:36:54.205Z,100547.47
2023-06-02T11:39:24.845Z,100575.03
2023-06-02T11:41:59.612Z,100565.16
2023-06-02T11:44:30.414Z,100578.34
2023-06-02T11:47:01.139Z,100583.31
2023-06-02T11:49:41.156Z,100568.91
2023-06-02T11:52:13.341Z,100574.34
2023-06-02T11:54:54.958Z,100576.03
2023-06-02T11:57:30.261Z,100582.72
2023-06-02T12:00:21.894Z,100595.97
2023-06-02T12:02:55.732Z,100595.13
2023-06-02T12:05:37.616Z,100503.44
2023-06-02T12:08:27.487Z,100601.53
2023-06-02T12:11:00.418Z,100608.81
2023-06-02T12:13:33.955Z,100628.44
2023-06-02T12:16:23.854Z,100627.75
2023-06-02T12:18:57.088Z,100605.94
2023-06-02T12:21:30.298Z,100525.91
2023-06-02T12:24:01.571Z,100643.09
2023-06-02T12:26:45.400Z,100513.78
2023-06-02T12:29:17.309Z,100654.88
2023-06-02T12:31:47.820Z,100665.28
2023-06-02T12:34:19.552Z,100648.59
2023-06-02T12:36:50.234Z,100647.56
2023-06-02T12:39:21.573Z,100659.53
2023-06-02T12:41:52.571Z,100667.47
2023-06-02T12:44:23.296Z,100664.97
2023-06-02T12:46:56.271Z,100641.06
2023-06-02T12:49:27.510Z,100665.81
2023-06-02T12:51:58.461Z,100680.31
2023-06-02T12:54:29.153Z,100679.66
2023-06-02T12:57:00.173Z,100595.06
2023-06-02T12:59:30.784Z,100698.53
2023-06-02T13:02:02.003Z,100699.97
2023-06-02T13:04:34.992Z,100678.88
2023-06-02T13:07:09.768Z,100703.44
2023-06-02T13:09:40.767Z,100634.88
2023-06-02T13:12:12.677Z,100681.97
2023-06-02T13:14:43.457Z,100692.72
2023-06-02T13:17:14.350Z,100707.13
2023-06-02T13:19:49.090Z,100710.03
2023-06-02T13:22:20.102Z,100709.81
2023-06-02T13:24:51.236Z,100710.72
2023-06-02T13:27:30.540Z,100697.59
2023-06-02T13:30:07.116Z,100686.75
2023-06-02T13:32:38.022Z,100716.25
2023-06-02T13:35:10.430Z,100713.88
2023-06-02T13:37:42.583Z,100711.03
2023-06-02T13:40:13.835Z,100709.41
2023-06-02T13:42:44.343Z,100693.16
2023-06-02T13:45:15.506Z,100666.63
2023-06-02T13:47:46.016Z,100729.31
2023-06-02T13:50:17.157Z,100712.75
2023-06-02T13:52:47.969Z,100701.59
2023-06-02T13:55:19.681Z,100705.91
2023-06-02T13:57:50.427Z,100712.75
2023-06-02T14:00:21.565Z,100724.00
2023-06-02T14:02:52.192Z,100729.88
2023-06-02T14:05:22.911Z,100726.00
2023-06-02T14:07:54.313Z,100732.44
2023-06-02T14:10:25.462Z,100733.34
2023-06-02T14:12:56.656Z,100741.66
2023-06-02T14:15:27.420Z,100725.06
2023-06-02T14:17:58.182Z,100742.25
2023-06-02T14:20:29.131Z,100747.06
2023-06-02T14:23:00.301Z,100722.25
2023-06-02T14:25:30.829Z,100738.63
2023-06-02T14:28:01.699Z,100734.72
2023-06-02T14:30:32.425Z,100739.69
2023-06-02T14:33:03.347Z,100733.38
2023-06-02T14:35:34.338Z,100719.97
2023-06-02T14:38:05.070Z,100733.22
2023-06-02T14:40:35.989Z,100758.94
2023-06-02T14:43:08.918Z,100753.28
2023-06-02T14:45:40.256Z,100780.28
2023-06-02T14:48:11.553Z,100765.38
2023-06-02T14:50:43.100Z,100749.69
2023-06-02T14:53:13.891Z,100677.19
2023-06-02T14:55:45.204Z,100746.06
2023-06-02T14:58:17.288Z,100792.31
2023-06-02T15:00:47.740Z,100792.69
2023-06-02T15:03:18.476Z,100780.16
2023-06-02T15:05:49.776Z,100779.28
2023-06-02T15:08:20.811Z,100778.91
2023-06-02T15:10:52.018Z,100783.50
2023-06-02T15:13:22.737Z,100798.03
2023-06-02T15:15:53.300Z,100797.66
2023-06-02T15:18:24.016Z,100767.81
2023-06-02T15:20:54.880Z,100785.44
2023-06-02T15:23:25.620Z,100800.38
2023-06-02T15:25:56.211Z,100782.13
2023-06-02T15:28:27.366Z,100619.66
2023-06-02T15:30:58.327Z,100775.31
2023-06-02T15:33:29.194Z,100796.88
2023-06-02T15:36:01.433Z,100783.59
2023-06-02T15:38:32.453Z,100769.91
2023-06-02T15:41:03.237Z,100777.75
2023-06-02T15:43:34.137Z,100766.59
2023-06-02T15:46:05.745Z,100788.97
2023-06-02T15:48:38.270Z,100781.97
2023-06-02T15:51:10.580Z,100733.41
2023-06-02T15:53:42.475Z,100763.28
2023-06-02T15:56:14.780Z,100640.25
2023-06-02T15:58:45.565Z,100739.00
2023-06-02T16:01:16.293Z,100742.34
2023-06-02T16:03:47.925Z,100754.53
2023-06-02T16:06:19.312Z,100744.81
2023-06-02T16:08:50.474Z,100734.22
2023-06-02T16:11:21.252Z,100742.53
2023-06-02T16:13:52.340Z,100756.69
2023-06-02T16:16:23.232Z,100746.66
2023-06-02T16:18:54.064Z,100715.97
2023-06-02T16:21:24.877Z,100731.28
2023-06-02T16:23:55.915Z,100715.06
2023-06-02T16:26:27.224Z,100688.72
2023-06-02T16:29:01.821Z,100720.88
2023-06-02T16:31:33.293Z,100716.28
2023-06-02T16:34:04.113Z,100615.41
2023-06-02T16:36:35.246Z,100724.16
2023-06-02T16:39:06.096Z,100709.66
2023-06-02T16:41:36.944Z,100735.84
2023-06-02T16:44:07.745Z,100729.00
2023-06-02T16:46:38.972Z,100708.84
2023-06-02T16:49:12.231Z,100613.97
2023-06-02T16:51:42.918Z,100716.09
2023-06-02T16:54:15.279Z,100711.97
2023-06-02T16:56:46.210Z,100711.97
2023-06-02T16:59:17.148Z,100711.34
2023-06-02T17:01:49.047Z,100680.03
2023-06-02T17:04:20.677Z,100684.38
2023-06-02T17:06:51.533Z,100684.78
2023-06-02T17:09:23.251Z,100673.22
2023-06-02T17:11:54.139Z,100688.13
2023-06-02T17:14:26.095Z,100682.25
2023-06-02T17:16:56.716Z,100675.69
2023-06-02T17:19:27.072Z,100691.44
2023-06-02T17:21:57.937Z,100693.09
2023-06-02T17:24:28.785Z,100692.53
2023-06-02T17:26:59.286Z,100679.44
2023-06-02T17:29:29.878Z,100671.97
2023-06-02T17:32:00.790Z,100683.59
2023-06-02T17:34:31.823Z,100668.28
2023-06-02T17:37:02.282Z,100681.94
2023-06-02T17:39:33.131Z,100680.69
2023-06-02T17:42:04.359Z,100695.63
2023-06-02T17:44:36.700Z,100658.56
2023-06-02T17:47:07.946Z,100673.22
2023-06-02T17:49:39.199Z,100684.78
2023-06-02T17:52:10.709Z,100680.28
2023-06-02T17:54:41.577Z,100679.69
2023-06-02T17:57:13.096Z,100671.94
2023-06-02T17:59:44.721Z,100674.47
2023-06-02T18:02:15.756Z,100663.88
2023-06-02T18:04:46.202Z,100664.09
2023-06-02T18:07:16.970Z,100671.22
2023-06-02T18:09:50.754Z,100645.66
2023-06-02T18:12:21.637Z,100650.03
2023-06-02T18:14:52.379Z,100669.50
2023-06-02T18:17:23.367Z,100640.09
2023-06-02T18:19:54.515Z,100656.88
2023-06-02T18:22:25.968Z,100643.81
2023-06-02T18:24:56.596Z,100663.72
2023-06-02T18:27:27.500Z,100650.03
2023-06-02T18:29:57.824Z,100634.94
2023-06-02T18:32:28.474Z,100611.50
2023-06-02T18:34:59.040Z,100615.84
2023-06-02T18:37:30.312Z,100638.41
2023-06-02T18:40:01.083Z,100612.72
2023-06-02T18:42:32.069Z,100628.66
2023-06-02T18:45:02.855Z,100626.34
2023-06-02T18:47:33.479Z,100633.00
2023-06-02T18:50:05.715Z,100612.47
2023-06-02T18:52:39.014Z,100616.47
2023-06-02T18:55:10.892Z,100577.06
2023-06-02T18:57:42.437Z,100631.81
2023-06-02T19:00:14.670Z,100615.22
2023-06-02T19:02:47.388Z,100620.38
2023-06-02T19:05:18.735Z,100623.88
2023-06-02T19:07:49.378Z,100622.00
2023-06-02T19:10:20.141Z,100561.75
2023-06-02T19:12:50.862Z,100603.59
2023-06-02T19:15:21.556Z,100629.31
2023-06-02T19:17:52.804Z,100626.03
2023-06-02T19:20:24.333Z,100592.00
2023-06-02T19:22:55.079Z,100609.41
2023-06-02T19:25:25.855Z,100612.09
2023-06-02T19:27:56.181Z,100590.78
2023-06-02T19:30:26.928Z,100618.53
2023-06-02T19:32:58.572Z,100588.34
2023-06-02T19:35:29.253Z,100624.81
2023-06-02T19:37:59.898Z,100635.59
2023-06-02T19:40:30.860Z,100587.13
2023-06-02T19:43:01.233Z,100605.34
2023-06-02T19:45:32.405Z,100626.88
2023-06-02T19:48:03.262Z,100630.59
2023-06-02T19:50:34.270Z,100584.84
2023-06-02T19:53:04.882Z,100606.66
2023-06-02T19:55:35.538Z,100625.44
2023-06-02T19:58:05.881Z,100621.56
2023-06-02T20:00:36.786Z,100601.69
2023-06-02T20:03:08.025Z,100510.50
2023-06-02T20:05:38.883Z,100615.38
2023-06-02T20:08:09.536Z,100629.44
2023-06-02T20:10:40.451Z,100594.69
2023-06-02T20:13:11.180Z,100604.56
2023-06-02T20:15:42.069Z,100623.19
2023-06-02T20:18:12.741Z,100609.34
2023-06-02T20:20:43.246Z,100627.78
2023-06-02T20:23:14.465Z,100626.13
2023-06-02T20:25:45.302Z,100623.63
2023-06-02T20:28:16.064Z,100490.84
2023-06-02T20:30:48.514Z,100611.19
2023-06-02T20:33:19.526Z,100605.97
2023-06-02T20:35:50.038Z,100597.47
2023-06-02T20:38:20.898Z,100583.78
2023-06-02T20:40:51.566Z,100600.81
2023-06-02T20:43:21.949Z,100500.56
2023-06-02T20:45:53.698Z,100570.97
2023-06-02T20:48:24.221Z,100592.50
2023-06-02T20:50:54.889Z,100604.13
2023-06-02T20:53:25.499Z,100580.91
2023-06-02T20:55:55.881Z,100605.81
2023-06-02T20:58:26.453Z,100607.25
2023-06-02T21:00:56.991Z,100608.28
2023-06-02T21:03:27.839Z,100606.03
2023-06-02T21:05:58.657Z,100616.41
2023-06-02T21:08:28.984Z,100572.66
2023-06-02T21:10:59.976Z,100616.63
2023-06-02T21:13:30.564Z,100612.06
2023-06-02T21:16:00.913Z,100277.88
2023-06-02T21:18:31.644Z,100545.34
2023-06-02T21:21:02.510Z,100633.88
2023-06-02T21:23:33.253Z,100594.06
2023-06-02T21:26:04.170Z,100625.38
2023-06-02T21:28:34.789Z,100618.72
2023-06-02T21:31:05.631Z,100627.44
2023-06-02T21:33:36.565Z,100624.38
2023-06-02T21:36:08.504Z,100600.75
2023-06-02T21:38:38.686Z,100616.75
2023-06-02T21:41:09.152Z,100616.69
2023-06-02T21:43:39.402Z,100620.84
2023-06-02T21:46:10.495Z,100598.47
2023-06-02T21:48:41.202Z,100640.78
2023-06-02T21:51:12.071Z,100647.63
2023-06-02T21:53:42.832Z,100628.13
2023-06-02T21:56:13.572Z,100666.53
2023-06-02T21:58:44.138Z,100682.53
2023-06-02T22:01:15.318Z,100662.38
2023-06-02T22:03:46.168Z,100669.22
2023-06-02T22:06:17.079Z,100674.69
2023-06-02T22:08:48.390Z,100683.16
2023-06-02T22:11:22.563Z,100670.75
2023-06-02T22:13:53.873Z,100684.47
2023-06-02T22:16:24.699Z,100681.56
2023-06-02T22:18:55.167Z,100695.06
2023-06-02T22:21:47.798Z,100700.28
2023-06-02T22:24:26.954Z,100713.16
2023-06-02T22:26:58.888Z,100616.47
2023-06-02T22:29:29.478Z,100713.97
2023-06-02T22:32:00.209Z,100718.13
2023-06-02T22:35:21.650Z,100727.69
2023-06-02T22:37:55.249Z,100665.47
2023-06-02T22:40:25.914Z,100738.03
2023-06-02T22:42:56.437Z,100743.44
2023-06-02T22:45:27.017Z,100750.53
2023-06-02T22:47:57.874Z,100754.69
2023-06-02T22:50:29.021Z,100763.41
2023-06-02T22:52:59.816Z,100761.97
2023-06-02T22:55:30.295Z,100757.19
2023-06-02T22:58:00.965Z,100777.94
2023-06-02T23:00:32.104Z,100757.19
2023-06-02T23:03:03.000Z,100771.28
2023-06-02T23:05:33.617Z,100770.28
2023-06-02T23:08:04.345Z,100758.44
2023-06-02T23:10:35.961Z,100788.91
2023-06-02T23:13:07.069Z,100764.59
2023-06-02T23:15:37.711Z,100781.81
2023-06-02T23:18:08.166Z,100792.19
2023-06-02T23:20:38.755Z,100762.06
2023-06-02T23:23:09.191Z,100761.41
2023-06-02T23:25:39.843Z,100799.19
2023-06-02T23:28:10.899Z,100785.47
2023-06-02T23:30:41.659Z,100802.66
2023-06-02T23:33:12.956Z,100812.22
2023-06-02T23:35:44.144Z,100798.06
2023-06-02T23:38:14.836Z,100810.91
2023-06-02T23:40:45.280Z,100823.13
2023-06-02T23:43:16.230Z,100805.00
2023-06-02T23:45:46.999Z,100784.03
2023-06-02T23:48:17.856Z,100798.72
2023-06-02T23:50:48.247Z,100797.91
2023-06-02T23:53:21.587Z,100755.91
2023-06-02T23:55:52.478Z,100772.75
2023-06-02T23:58:23.186Z,100815.19
